Time;durP1;ratioP1;P1;durP2;ratioP2;P2;SDS_P1;SDS_P2;PMS_P1;PMS_P2;Temp;Humidity;BMP_temperature;BMP_pressure;BME280_temperature;BME280_humidity;BME280_pressure;Samples;Min_cycle;Max_cycle;Signal;HPM_P1;HPM_P2
2021/11/14 00:00:31;;;;;;;80.37;36.80;;;10.70;99.90;;;;;;4907216;29;20048;-79
2021/11/14 00:03:00;;;;;;;81.10;34.57;;;10.70;99.90;;;;;;4906718;29;20036;-79
2021/11/14 00:05:27;;;;;;;71.37;36.03;;;10.70;99.90;;;;;;4908021;29;20032;-78
2021/11/14 00:07:54;;;;;;;103.43;34.90;;;10.70;99.90;;;;;;4908218;29;20037;-82
2021/11/14 00:10:20;;;;;;;78.50;35.13;;;10.80;99.90;;;;;;4909377;29;20056;-81
2021/11/14 00:12:45;;;;;;;64.97;36.10;;;10.70;99.90;;;;;;4908237;29;20060;-81
2021/11/14 00:15:11;;;;;;;69.53;36.60;;;10.70;99.90;;;;;;4892481;29;20095;-82
2021/11/14 00:17:38;;;;;;;71.30;34.90;;;10.70;99.90;;;;;;4907052;29;20040;-82
2021/11/14 00:20:07;;;;;;;78.27;33.50;;;10.70;99.90;;;;;;4907658;29;20120;-82
2021/11/14 00:22:33;;;;;;;78.80;36.50;;;10.70;99.90;;;;;;4907324;29;20088;-81
2021/11/14 00:25:00;;;;;;;76.30;35.47;;;10.70;99.90;;;;;;4891972;29;20044;-81
2021/11/14 00:27:27;;;;;;;65.53;37.13;;;10.60;99.90;;;;;;4891913;29;20057;-80
2021/11/14 00:29:53;;;;;;;65.47;34.90;;;10.70;99.90;;;;;;4907241;29;20063;-81
2021/11/14 00:32:19;;;;;;;75.37;36.37;;;10.70;99.90;;;;;;4907987;29;20044;-82
2021/11/14 00:34:48;;;;;;;73.43;35.53;;;10.70;99.90;;;;;;4907112;29;20044;-81
2021/11/14 00:37:13;;;;;;;71.80;35.93;;;10.70;99.90;;;;;;4906577;29;20033;-80
2021/11/14 00:39:39;;;;;;;102.73;36.67;;;10.70;99.90;;;;;;4891083;29;20131;-81
2021/11/14 00:42:05;;;;;;;100.97;37.87;;;10.80;99.90;;;;;;4891048;29;20052;-79
2021/11/14 00:44:31;;;;;;;74.90;37.13;;;10.80;99.90;;;;;;4906741;29;20049;-81
2021/11/14 00:46:57;;;;;;;69.63;37.57;;;10.80;99.90;;;;;;4907357;29;20071;-81
2021/11/14 00:49:22;;;;;;;69.57;37.67;;;10.80;99.90;;;;;;4907616;29;20393;-80
2021/11/14 00:51:48;;;;;;;84.67;39.53;;;10.90;99.90;;;;;;4907382;29;20044;-80
2021/11/14 00:54:15;;;;;;;82.63;36.77;;;10.90;99.90;;;;;;4908393;29;20037;-81
2021/11/14 00:56:41;;;;;;;96.83;37.63;;;10.90;99.90;;;;;;4906913;29;20033;-82
2021/11/14 00:59:08;;;;;;;66.23;37.90;;;10.90;99.90;;;;;;4908750;29;20143;-82
2021/11/14 01:01:33;;;;;;;67.33;37.20;;;10.90;99.90;;;;;;4907476;29;20045;-81
2021/11/14 01:04:01;;;;;;;64.90;36.53;;;10.90;99.90;;;;;;4907383;29;20136;-82
2021/11/14 01:06:27;;;;;;;64.60;36.63;;;10.80;99.90;;;;;;4908588;29;20033;-82
2021/11/14 01:08:53;;;;;;;63.80;37.67;;;10.90;99.90;;;;;;4908263;29;20366;-79
2021/11/14 01:11:20;;;;;;;60.37;36.53;;;10.90;99.90;;;;;;4906414;29;20049;-82
2021/11/14 01:13:46;;;;;;;61.43;37.30;;;10.90;99.90;;;;;;4905826;29;20057;-77
2021/11/14 01:16:15;;;;;;;65.87;38.53;;;10.90;99.90;;;;;;4906485;29;20040;-79
2021/11/14 01:18:40;;;;;;;65.43;38.37;;;10.80;99.90;;;;;;4905628;29;20025;-80
2021/11/14 01:21:09;;;;;;;67.57;37.63;;;10.80;99.90;;;;;;4906403;29;20054;-77
2021/11/14 01:23:35;;;;;;;61.70;37.37;;;10.90;99.90;;;;;;4904722;29;20037;-79
2021/11/14 01:26:02;;;;;;;65.93;38.50;;;10.90;99.90;;;;;;4905164;29;20044;-79
2021/11/14 01:28:27;;;;;;;60.60;36.00;;;10.90;99.90;;;;;;4889397;29;20150;-79
2021/11/14 01:30:55;;;;;;;61.83;36.30;;;10.90;99.90;;;;;;4904878;29;20057;-80
2021/11/14 01:33:23;;;;;;;63.67;36.00;;;10.90;99.90;;;;;;4890785;29;20052;-79
2021/11/14 01:35:49;;;;;;;64.03;38.27;;;10.90;99.90;;;;;;4904999;29;20092;-79
2021/11/14 01:38:16;;;;;;;62.87;37.93;;;11.00;99.90;;;;;;4904114;29;20073;-78
2021/11/14 01:40:46;;;;;;;69.47;38.67;;;10.90;99.90;;;;;;4903788;29;20039;-78
2021/11/14 01:43:16;;;;;;;74.23;39.93;;;10.90;99.90;;;;;;4903968;29;20036;-80
2021/11/14 01:45:42;;;;;;;70.57;38.43;;;10.80;99.90;;;;;;4903177;29;20059;-78
2021/11/14 01:48:08;;;;;;;79.47;42.67;;;10.80;99.90;;;;;;4891723;29;20048;-78
2021/11/14 01:50:35;;;;;;;75.57;40.73;;;10.80;99.90;;;;;;4909129;29;20037;-78
2021/11/14 01:53:02;;;;;;;73.97;41.23;;;10.70;99.90;;;;;;4908511;29;20470;-79
2021/11/14 01:55:30;;;;;;;78.50;41.93;;;10.70;99.90;;;;;;4893643;29;20044;-81
2021/11/14 01:57:57;;;;;;;86.23;43.10;;;10.70;99.90;;;;;;4909186;29;20040;-80
2021/11/14 02:00:34;;;;;;;75.93;40.33;;;10.70;99.90;;;;;;4909593;29;20103;-80
2021/11/14 02:03:01;;;;;;;78.43;40.80;;;10.60;99.90;;;;;;4909176;29;20092;-79
2021/11/14 02:05:29;;;;;;;70.57;38.90;;;10.60;99.90;;;;;;4893774;29;20061;-81
2021/11/14 02:07:57;;;;;;;78.63;39.93;;;10.60;99.90;;;;;;4910230;29;20056;-79
2021/11/14 02:10:25;;;;;;;99.47;46.80;;;10.70;99.90;;;;;;4910602;29;20037;-81
2021/11/14 02:12:52;;;;;;;79.77;41.23;;;10.70;99.90;;;;;;4909654;29;20100;-80
2021/11/14 02:15:18;;;;;;;83.40;42.43;;;10.70;99.90;;;;;;4910878;29;20044;-81
2021/11/14 02:17:44;;;;;;;84.43;41.13;;;10.60;99.90;;;;;;4910552;29;20489;-81
2021/11/14 02:20:10;;;;;;;86.60;43.50;;;10.60;99.90;;;;;;4909642;29;20045;-80
2021/11/14 02:22:36;;;;;;;82.37;41.97;;;10.60;99.90;;;;;;4909211;29;20442;-81
2021/11/14 02:25:04;;;;;;;90.27;43.53;;;10.50;99.90;;;;;;4893885;29;20044;-80
2021/11/14 02:27:30;;;;;;;101.07;47.03;;;10.50;99.90;;;;;;4909094;29;20040;-81
2021/11/14 02:29:56;;;;;;;84.90;41.60;;;10.60;99.90;;;;;;4893448;29;20060;-80
2021/11/14 02:32:22;;;;;;;91.33;43.33;;;10.50;99.90;;;;;;4910287;29;20041;-80
2021/11/14 02:34:47;;;;;;;94.17;45.13;;;10.40;99.90;;;;;;4893379;29;20064;-80
2021/11/14 02:37:13;;;;;;;85.83;42.23;;;10.30;99.90;;;;;;4908183;29;20036;-81
2021/11/14 02:39:39;;;;;;;88.90;42.93;;;10.30;99.90;;;;;;4909489;29;20044;-81
2021/11/14 02:42:05;;;;;;;91.17;43.77;;;10.20;99.90;;;;;;4908702;29;20052;-81
2021/11/14 02:44:31;;;;;;;87.47;42.17;;;10.20;99.90;;;;;;4892841;29;20462;-82
2021/11/14 02:46:58;;;;;;;96.37;45.50;;;10.30;99.90;;;;;;4908841;29;20032;-80
2021/11/14 02:49:23;;;;;;;122.23;49.23;;;10.20;99.90;;;;;;4909048;29;20047;-82
2021/11/14 02:51:49;;;;;;;89.97;42.80;;;10.10;99.90;;;;;;4909881;29;20044;-80
2021/11/14 02:54:15;;;;;;;89.60;43.03;;;10.10;99.90;;;;;;4909315;29;20084;-80
2021/11/14 02:56:42;;;;;;;83.37;39.90;;;10.10;99.90;;;;;;4910719;29;20057;-80
2021/11/14 02:59:08;;;;;;;83.37;41.53;;;10.10;99.90;;;;;;4908221;29;20119;-79
2021/11/14 03:01:46;;;;;;;87.30;41.10;;;10.20;99.90;;;;;;4906022;29;20072;-81
2021/11/14 03:04:19;;;;;;;98.20;45.43;;;10.20;99.90;;;;;;4904540;29;20404;-79
2021/11/14 03:06:46;;;;;;;91.22;42.17;;;10.30;99.90;;;;;;4905110;29;20064;-79
2021/11/14 03:09:12;;;;;;;92.30;45.47;;;10.20;99.90;;;;;;4903786;29;20037;-78
2021/11/14 03:11:38;;;;;;;89.93;42.70;;;10.20;99.90;;;;;;4905055;29;20048;-79
2021/11/14 03:14:05;;;;;;;88.43;42.07;;;10.20;99.90;;;;;;4904925;29;20048;-79
2021/11/14 03:16:32;;;;;;;90.90;41.80;;;10.10;99.90;;;;;;4905643;29;20047;-79
2021/11/14 03:18:58;;;;;;;91.07;43.73;;;10.10;99.90;;;;;;4904883;29;20039;-80
2021/11/14 03:21:24;;;;;;;97.07;46.13;;;10.20;99.90;;;;;;4904349;29;20045;-80
2021/11/14 03:23:51;;;;;;;99.87;44.60;;;10.20;99.90;;;;;;4904488;29;20060;-80
2021/11/14 03:26:17;;;;;;;95.27;44.03;;;10.10;99.90;;;;;;4905588;29;20482;-79
2021/11/14 03:28:44;;;;;;;97.13;44.97;;;10.10;99.90;;;;;;4904171;29;20522;-78
2021/11/14 03:31:10;;;;;;;88.03;40.73;;;10.20;99.90;;;;;;4903953;29;20485;-78
2021/11/14 03:33:36;;;;;;;100.83;46.10;;;10.20;99.90;;;;;;4903511;29;20029;-82
2021/11/14 03:36:08;;;;;;;97.17;44.67;;;10.30;99.90;;;;;;4903470;29;20040;-78
2021/11/14 03:38:49;;;;;;;104.27;45.67;;;10.30;99.90;;;;;;4904161;29;20036;-79
2021/11/14 03:41:18;;;;;;;90.83;44.03;;;10.20;99.90;;;;;;4904352;29;20097;-80
2021/11/14 03:43:44;;;;;;;122.97;49.83;;;10.20;99.90;;;;;;4905685;29;20044;-80
2021/11/14 03:46:11;;;;;;;94.13;43.73;;;10.20;99.90;;;;;;4905537;29;20055;-80
2021/11/14 03:48:40;;;;;;;89.13;43.80;;;10.20;99.90;;;;;;4905515;29;20499;-82
2021/11/14 03:51:07;;;;;;;94.43;43.50;;;10.30;99.90;;;;;;4904412;29;20123;-80
2021/11/14 03:53:33;;;;;;;101.07;46.47;;;10.30;99.90;;;;;;4904991;29;20131;-79
2021/11/14 03:56:00;;;;;;;99.27;46.67;;;10.30;99.90;;;;;;4903671;29;20056;-79
2021/11/14 03:58:26;;;;;;;96.97;44.97;;;10.30;99.90;;;;;;4905112;29;20089;-80
2021/11/14 04:00:55;;;;;;;109.73;49.00;;;10.20;99.90;;;;;;4888245;29;20041;-81
2021/11/14 04:03:22;;;;;;;110.67;50.50;;;10.20;99.90;;;;;;4904076;29;20041;-80
2021/11/14 04:05:48;;;;;;;102.30;46.67;;;10.10;99.90;;;;;;4903400;29;20118;-80
2021/11/14 04:08:21;;;;;;;104.50;48.40;;;10.10;99.90;;;;;;4888350;29;20064;-80
2021/11/14 04:10:48;;;;;;;95.85;45.75;;;10.10;99.90;;;;;;4904126;29;20092;-79
2021/11/14 04:13:15;;;;;;;106.57;48.37;;;10.10;99.90;;;;;;4903471;29;20052;-79
2021/11/14 04:15:41;;;;;;;94.67;47.07;;;10.20;99.90;;;;;;4887611;29;20037;-83
2021/11/14 04:18:07;;;;;;;97.53;46.43;;;10.20;99.90;;;;;;4903930;29;20508;-80
2021/11/14 04:20:36;;;;;;;91.50;43.83;;;10.20;99.90;;;;;;4903454;29;20037;-80
2021/11/14 04:23:03;;;;;;;89.97;45.37;;;10.30;99.90;;;;;;4904766;29;20059;-80
2021/11/14 04:25:29;;;;;;;93.30;46.70;;;10.50;99.90;;;;;;4887461;29;20130;-79
2021/11/14 04:27:56;;;;;;;87.87;45.03;;;10.40;99.90;;;;;;4903012;29;20281;-79
2021/11/14 04:30:22;;;;;;;102.20;49.50;;;10.40;99.90;;;;;;4902754;29;20041;-79
2021/11/14 04:32:48;;;;;;;83.63;42.23;;;10.30;99.90;;;;;;4887393;29;20047;-80
2021/11/14 04:35:14;;;;;;;84.57;45.00;;;10.40;99.90;;;;;;4887090;29;20438;-79
2021/11/14 04:37:40;;;;;;;86.47;45.87;;;10.50;99.90;;;;;;4902513;29;20496;-80
2021/11/14 04:40:08;;;;;;;84.87;45.47;;;10.40;99.90;;;;;;4903392;29;20032;-79
2021/11/14 04:42:35;;;;;;;87.83;44.10;;;10.30;99.90;;;;;;4888254;29;20152;-81
2021/11/14 04:45:03;;;;;;;90.60;44.73;;;10.30;99.90;;;;;;4903689;29;20044;-81
2021/11/14 04:47:29;;;;;;;91.17;44.63;;;10.20;99.90;;;;;;4904409;29;20033;-79
2021/11/14 04:49:55;;;;;;;79.70;42.60;;;10.30;99.90;;;;;;4902722;29;20119;-80
2021/11/14 04:52:20;;;;;;;86.50;45.60;;;10.30;99.90;;;;;;4887987;29;20047;-81
2021/11/14 04:54:46;;;;;;;86.90;44.13;;;10.20;99.90;;;;;;4902835;29;20041;-81
2021/11/14 04:57:12;;;;;;;83.63;43.73;;;10.30;99.90;;;;;;4902379;29;20044;-81
2021/11/14 04:59:38;;;;;;;93.57;45.67;;;10.30;99.90;;;;;;4902638;29;20093;-81
2021/11/14 05:02:04;;;;;;;84.17;44.43;;;10.20;99.90;;;;;;4885575;29;20496;-80
2021/11/14 05:04:29;;;;;;;81.77;41.80;;;10.10;99.90;;;;;;4886534;29;20071;-80
2021/11/14 05:06:55;;;;;;;88.77;44.33;;;10.20;99.90;;;;;;4901447;29;20048;-81
2021/11/14 05:09:21;;;;;;;90.27;46.27;;;10.20;99.90;;;;;;4901903;29;20100;-80
2021/11/14 05:11:47;;;;;;;84.40;42.77;;;10.10;99.90;;;;;;4903552;29;20032;-81
2021/11/14 05:14:13;;;;;;;84.13;43.20;;;10.00;99.90;;;;;;4901978;29;20105;-81
2021/11/14 05:16:39;;;;;;;81.80;43.00;;;10.10;99.90;;;;;;4902134;29;20072;-80
2021/11/14 05:19:05;;;;;;;89.47;44.83;;;10.10;99.90;;;;;;4886817;29;20064;-79
2021/11/14 05:21:31;;;;;;;88.83;45.37;;;10.10;99.90;;;;;;4901633;29;20036;-80
2021/11/14 05:23:56;;;;;;;87.33;44.57;;;10.00;99.90;;;;;;4902027;29;20512;-79
2021/11/14 05:26:22;;;;;;;86.20;44.87;;;10.00;99.90;;;;;;4901253;29;20045;-81
2021/11/14 05:28:48;;;;;;;84.33;44.93;;;9.90;99.90;;;;;;4903081;29;20040;-79
2021/11/14 05:31:13;;;;;;;86.07;42.80;;;9.90;99.90;;;;;;4902417;29;20478;-80
2021/11/14 05:33:39;;;;;;;78.20;40.67;;;9.90;99.90;;;;;;4903670;29;20358;-80
2021/11/14 05:36:05;;;;;;;75.63;40.57;;;9.90;99.90;;;;;;4902080;29;20041;-81
2021/11/14 05:38:30;;;;;;;88.20;44.53;;;10.00;99.90;;;;;;4902198;29;20072;-83
2021/11/14 05:40:56;;;;;;;76.93;41.30;;;10.00;99.90;;;;;;4902253;29;20043;-81
2021/11/14 05:43:22;;;;;;;75.37;42.03;;;10.00;99.90;;;;;;4903558;29;20040;-82
2021/11/14 05:45:48;;;;;;;83.07;43.83;;;10.00;99.90;;;;;;4903854;29;20073;-81
2021/11/14 05:48:13;;;;;;;74.33;39.37;;;10.10;99.90;;;;;;4903636;29;20040;-82
2021/11/14 05:50:39;;;;;;;73.57;40.77;;;10.00;99.90;;;;;;4902593;29;20055;-81
2021/11/14 05:53:05;;;;;;;83.63;42.60;;;10.00;99.90;;;;;;4903074;29;20070;-82
2021/11/14 05:55:32;;;;;;;74.40;41.00;;;9.90;99.90;;;;;;4902827;29;20061;-82
2021/11/14 05:58:02;;;;;;;80.20;41.80;;;9.90;99.90;;;;;;4886196;29;20036;-81
2021/11/14 06:00:58;;;;;;;81.73;43.67;;;9.90;99.90;;;;;;4901955;29;20066;-79
2021/11/14 06:03:32;;;;;;;77.93;42.43;;;9.90;99.90;;;;;;4903275;29;20041;-82
2021/11/14 06:05:58;;;;;;;86.37;44.97;;;9.90;99.90;;;;;;4888279;29;20048;-81
2021/11/14 06:08:24;;;;;;;81.10;44.53;;;9.90;99.90;;;;;;4903352;29;20044;-80
2021/11/14 06:10:52;;;;;;;89.07;46.20;;;9.90;99.90;;;;;;4903118;29;20040;-81
2021/11/14 06:13:27;;;;;;;79.90;43.20;;;9.80;99.90;;;;;;4903252;29;20056;-78
2021/11/14 06:15:53;;;;;;;87.87;46.83;;;9.80;99.90;;;;;;4903151;29;20538;-79
2021/11/14 06:18:20;;;;;;;82.70;44.67;;;9.80;99.90;;;;;;4901375;29;20044;-79
2021/11/14 06:20:45;;;;;;;81.37;44.27;;;9.80;99.90;;;;;;4902031;29;20052;-81
2021/11/14 06:23:15;;;;;;;77.37;43.90;;;9.90;99.90;;;;;;4901870;29;20045;-80
2021/11/14 06:25:40;;;;;;;84.23;46.20;;;9.80;99.90;;;;;;4898237;29;20033;-81
2021/11/14 06:28:08;;;;;;;77.53;44.20;;;9.80;99.90;;;;;;4896488;29;20180;-81
2021/11/14 06:30:35;;;;;;;80.63;43.97;;;9.80;99.90;;;;;;4896595;29;20135;-80
2021/11/14 06:33:00;;;;;;;76.17;42.60;;;9.70;99.90;;;;;;4896509;29;20127;-81
2021/11/14 06:35:26;;;;;;;74.50;44.87;;;9.70;99.90;;;;;;4900124;29;20124;-80
2021/11/14 06:37:52;;;;;;;77.87;45.03;;;9.70;99.90;;;;;;4900152;29;20373;-80
2021/11/14 06:40:18;;;;;;;84.23;46.07;;;9.70;99.90;;;;;;4901340;29;20416;-78
2021/11/14 06:42:44;;;;;;;73.83;42.97;;;9.70;99.90;;;;;;4884701;29;20144;-80
2021/11/14 06:45:10;;;;;;;77.50;45.57;;;9.60;99.90;;;;;;4883986;29;20065;-80
2021/11/14 06:47:37;;;;;;;77.63;45.77;;;9.60;99.90;;;;;;4901409;29;20041;-80
2021/11/14 06:50:04;;;;;;;79.43;45.97;;;9.50;99.90;;;;;;4900154;29;20049;-83
2021/11/14 06:52:29;;;;;;;80.37;46.00;;;9.50;99.90;;;;;;4900290;29;20065;-83
2021/11/14 06:54:55;;;;;;;77.00;47.03;;;9.50;99.90;;;;;;4899492;29;20041;-82
2021/11/14 06:57:21;;;;;;;78.90;47.90;;;9.50;99.90;;;;;;4901392;29;20041;-81
2021/11/14 06:59:48;;;;;;;77.23;46.40;;;9.50;99.90;;;;;;4900898;29;20128;-83
2021/11/14 07:02:14;;;;;;;79.27;46.10;;;9.50;99.90;;;;;;4900759;29;20490;-82
2021/11/14 07:04:40;;;;;;;82.87;49.33;;;9.50;99.90;;;;;;4899536;29;20045;-83
2021/11/14 07:07:06;;;;;;;86.83;48.53;;;9.50;99.90;;;;;;4899596;29;20044;-82
2021/11/14 07:09:32;;;;;;;84.23;48.27;;;9.50;99.90;;;;;;4883907;29;20114;-83
2021/11/14 07:11:58;;;;;;;79.40;46.30;;;9.50;99.90;;;;;;4899478;29;20065;-83
2021/11/14 07:14:26;;;;;;;85.83;48.07;;;9.50;99.90;;;;;;4899951;29;20493;-83
2021/11/14 07:16:54;;;;;;;79.20;46.00;;;9.40;99.90;;;;;;4884875;29;20057;-80
2021/11/14 07:19:20;;;;;;;87.03;48.23;;;9.30;99.90;;;;;;4898586;29;20488;-82
2021/11/14 07:21:47;;;;;;;106.33;55.13;;;9.30;99.90;;;;;;4899149;29;20040;-81
2021/11/14 07:24:13;;;;;;;110.77;57.23;;;9.30;99.90;;;;;;4899199;29;20047;-80
2021/11/14 07:26:40;;;;;;;110.23;58.60;;;9.30;99.90;;;;;;4898851;29;20434;-80
2021/11/14 07:29:05;;;;;;;115.70;59.17;;;9.20;99.90;;;;;;4899162;29;20052;-80
2021/11/14 07:31:32;;;;;;;112.63;59.30;;;9.20;99.90;;;;;;4898378;29;20147;-80
2021/11/14 07:33:57;;;;;;;117.03;60.33;;;9.10;99.90;;;;;;4898459;29;20068;-82
2021/11/14 07:36:23;;;;;;;118.03;61.03;;;9.20;99.90;;;;;;4898185;29;20067;-80
2021/11/14 07:38:49;;;;;;;117.10;59.40;;;9.20;99.90;;;;;;4898451;29;20050;-81
2021/11/14 07:41:15;;;;;;;104.47;56.33;;;9.10;99.90;;;;;;4898259;29;20139;-80
2021/11/14 07:43:41;;;;;;;106.97;56.50;;;9.10;99.90;;;;;;4899823;29;20083;-81
2021/11/14 07:46:07;;;;;;;99.90;55.13;;;9.00;99.90;;;;;;4898823;29;20052;-81
2021/11/14 07:48:34;;;;;;;107.63;54.77;;;9.00;99.90;;;;;;4899365;29;20366;-80
2021/11/14 07:51:01;;;;;;;107.53;54.33;;;9.00;99.90;;;;;;4899666;29;20040;-81
2021/11/14 07:53:27;;;;;;;102.03;53.93;;;9.00;99.90;;;;;;4900171;29;20435;-84
2021/11/14 07:55:53;;;;;;;99.40;52.20;;;9.00;99.90;;;;;;4882784;29;20037;-82
2021/11/14 07:58:19;;;;;;;109.20;54.20;;;8.90;99.90;;;;;;4898180;29;20048;-81
2021/11/14 08:00:46;;;;;;;107.90;57.30;;;8.90;99.90;;;;;;4899223;29;20060;-84
2021/11/14 08:03:12;;;;;;;106.27;54.43;;;8.90;99.90;;;;;;4899965;29;20092;-83
2021/11/14 08:05:41;;;;;;;112.70;55.23;;;8.90;99.90;;;;;;4899513;29;20049;-83
2021/11/14 08:08:07;;;;;;;112.77;55.60;;;8.90;99.90;;;;;;4900022;29;20500;-82
2021/11/14 08:10:34;;;;;;;120.80;56.00;;;8.90;99.90;;;;;;4883490;29;20047;-83
2021/11/14 08:13:03;;;;;;;120.50;56.20;;;8.90;99.90;;;;;;4900611;29;20048;-85
2021/11/14 08:15:28;;;;;;;117.00;56.17;;;8.90;99.90;;;;;;4900421;29;20056;-84
2021/11/14 08:17:54;;;;;;;117.07;54.83;;;8.90;99.90;;;;;;4883949;29;20536;-84
2021/11/14 08:20:20;;;;;;;113.20;53.87;;;8.90;99.90;;;;;;4899927;29;20112;-85
2021/11/14 08:22:47;;;;;;;115.80;55.23;;;9.00;99.90;;;;;;4899190;29;20228;-85
2021/11/14 08:25:15;;;;;;;107.07;51.27;;;9.00;99.90;;;;;;4899059;29;20040;-84
2021/11/14 08:27:41;;;;;;;118.33;55.53;;;9.00;99.90;;;;;;4900687;29;20061;-84
2021/11/14 08:30:10;;;;;;;104.93;51.50;;;9.10;99.90;;;;;;4899190;29;20128;-85
2021/11/14 08:32:36;;;;;;;104.27;52.67;;;9.00;99.90;;;;;;4901309;29;20045;-85
2021/11/14 08:35:03;;;;;;;99.03;51.17;;;9.00;99.90;;;;;;4903391;29;20036;-85
2021/11/14 08:37:29;;;;;;;103.93;52.43;;;9.00;99.90;;;;;;4905303;29;20047;-84
2021/11/14 08:39:55;;;;;;;107.63;53.00;;;9.00;99.90;;;;;;4884571;29;20040;-85
2021/11/14 08:42:20;;;;;;;100.30;51.40;;;9.10;99.90;;;;;;4899350;29;20092;-86
2021/11/14 08:44:46;;;;;;;94.63;51.10;;;9.10;99.90;;;;;;4901271;29;20413;-88
2021/11/14 08:47:12;;;;;;;102.33;53.30;;;9.00;99.90;;;;;;4899753;29;20044;-82
2021/11/14 08:49:38;;;;;;;96.43;50.47;;;8.90;99.90;;;;;;4884385;29;20051;-87
2021/11/14 08:52:04;;;;;;;100.43;51.00;;;8.90;99.90;;;;;;4899503;29;20095;-86
2021/11/14 08:54:30;;;;;;;98.83;50.40;;;9.00;99.90;;;;;;4900853;29;20044;-88
2021/11/14 08:56:56;;;;;;;101.37;52.87;;;9.10;99.90;;;;;;4899372;29;20048;-89
2021/11/14 08:59:21;;;;;;;94.57;49.63;;;9.20;99.90;;;;;;4904086;29;20040;-87
2021/11/14 09:01:47;;;;;;;94.10;50.00;;;9.30;99.90;;;;;;4885509;29;20111;-87
2021/11/14 09:04:13;;;;;;;94.03;49.00;;;9.20;99.90;;;;;;4884938;29;20132;-84
2021/11/14 09:06:38;;;;;;;101.77;51.40;;;9.20;99.90;;;;;;4885039;29;20389;-87
2021/11/14 09:09:09;;;;;;;99.60;50.50;;;9.20;99.90;;;;;;4884268;29;20045;-86
2021/11/14 09:11:37;;;;;;;100.60;50.73;;;9.10;99.90;;;;;;4885432;29;20079;-87
2021/11/14 09:14:03;;;;;;;100.33;51.57;;;9.20;99.90;;;;;;4900320;29;20060;-87
2021/11/14 09:16:29;;;;;;;90.50;49.57;;;9.20;99.90;;;;;;4901057;29;20041;-87
2021/11/14 09:18:56;;;;;;;104.60;53.40;;;9.20;99.90;;;;;;4900098;29;20116;-87
2021/11/14 09:21:22;;;;;;;95.50;51.20;;;9.20;99.90;;;;;;4900514;29;20404;-87
2021/11/14 09:23:49;;;;;;;93.43;50.33;;;9.20;99.90;;;;;;4900270;29;20040;-88
2021/11/14 09:26:15;;;;;;;107.20;53.80;;;9.20;99.90;;;;;;4899995;29;20068;-85
2021/11/14 09:28:42;;;;;;;103.80;55.83;;;9.10;99.90;;;;;;4884122;29;20037;-85
2021/11/14 09:31:10;;;;;;;108.10;56.23;;;9.20;99.90;;;;;;4899826;29;20048;-88
2021/11/14 09:33:36;;;;;;;110.97;56.90;;;9.10;99.90;;;;;;4899513;29;20060;-84
2021/11/14 09:36:03;;;;;;;115.50;58.60;;;9.10;99.90;;;;;;4906538;29;20032;-88
2021/11/14 09:38:28;;;;;;;106.07;55.60;;;9.10;99.90;;;;;;4898602;29;20041;-88
2021/11/14 09:40:57;;;;;;;108.67;56.20;;;9.10;99.90;;;;;;4896995;29;20049;-88
2021/11/14 09:43:23;;;;;;;113.63;58.60;;;9.10;99.90;;;;;;4913766;29;20037;-90
2021/11/14 09:45:52;;;;;;;119.90;60.40;;;9.10;99.90;;;;;;4909252;29;20041;-88
2021/11/14 09:48:20;;;;;;;116.17;58.30;;;9.20;99.90;;;;;;4907413;29;20041;-83
2021/11/14 09:50:46;;;;;;;113.80;57.03;;;9.20;99.90;;;;;;4907605;29;20048;-89
2021/11/14 09:53:12;;;;;;;110.60;56.67;;;9.10;99.90;;;;;;4908007;29;20125;-86
2021/11/14 09:55:38;;;;;;;123.27;60.37;;;9.20;99.90;;;;;;4907585;29;20398;-90
2021/11/14 09:58:06;;;;;;;123.67;59.53;;;9.20;99.90;;;;;;4892090;29;20037;-89
2021/11/14 10:00:33;;;;;;;127.23;61.13;;;9.10;99.90;;;;;;4891450;29;20037;-90
2021/11/14 10:02:59;;;;;;;121.50;60.87;;;9.10;99.90;;;;;;4891968;29;20041;-89
2021/11/14 10:05:25;;;;;;;130.77;61.73;;;9.20;99.90;;;;;;4892195;29;20112;-89
2021/11/14 10:07:59;;;;;;;124.90;59.60;;;9.20;99.90;;;;;;4909098;29;20120;-89
2021/11/14 10:10:31;;;;;;;125.57;60.07;;;9.30;99.90;;;;;;4914621;29;20099;-91
2021/11/14 10:12:57;;;;;;;118.72;59.15;;;9.30;99.90;;;;;;4909982;29;20043;-85
2021/11/14 10:15:24;;;;;;;127.47;62.57;;;9.40;99.90;;;;;;4908793;29;20059;-83
2021/11/14 10:17:56;;;;;;;118.10;58.00;;;9.50;99.90;;;;;;4909531;29;20114;-88
2021/11/14 10:20:30;;;;;;;117.57;59.17;;;9.40;99.90;;;;;;4908839;29;20497;-80
2021/11/14 10:23:01;;;;;;;123.83;59.00;;;9.40;99.90;;;;;;4909633;29;20449;-86
2021/11/14 10:25:27;;;;;;;125.07;60.20;;;9.40;99.90;;;;;;4909563;29;20073;-83
2021/11/14 10:27:56;;;;;;;118.63;58.87;;;9.40;99.90;;;;;;4909414;29;20479;-85
2021/11/14 10:30:25;;;;;;;112.50;58.50;;;9.30;99.90;;;;;;4907476;29;20028;-86
2021/11/14 10:33:00;;;;;;;117.80;59.77;;;9.30;99.90;;;;;;4907159;29;20039;-84
2021/11/14 10:35:28;;;;;;;110.33;56.13;;;9.20;99.90;;;;;;4908693;29;20438;-82
2021/11/14 10:37:57;;;;;;;104.80;53.17;;;9.30;99.90;;;;;;4911436;29;20082;-85
2021/11/14 10:40:31;;;;;;;94.57;48.93;;;9.30;99.90;;;;;;4915241;29;20044;-85
2021/11/14 10:42:59;;;;;;;93.10;48.83;;;9.40;99.90;;;;;;4914498;29;20389;-85
2021/11/14 10:45:27;;;;;;;99.63;52.47;;;9.40;99.90;;;;;;4909393;29;20041;-84
2021/11/14 10:48:04;;;;;;;95.40;50.43;;;9.40;99.90;;;;;;4909109;29;20036;-86
2021/11/14 10:50:35;;;;;;;92.30;48.53;;;9.40;99.90;;;;;;4908443;29;20037;-85
2021/11/14 10:53:25;;;;;;;93.50;51.00;;;9.60;99.90;;;;;;4908499;29;20028;-85
2021/11/14 10:55:55;;;;;;;99.63;50.27;;;9.70;99.90;;;;;;4909548;29;20541;-87
2021/11/14 10:58:23;;;;;;;86.93;48.27;;;9.70;99.40;;;;;;4908116;29;20036;-84
2021/11/14 11:00:53;;;;;;;91.27;48.93;;;9.60;99.30;;;;;;4908394;29;20044;-85
2021/11/14 11:03:19;;;;;;;89.00;48.30;;;9.60;99.50;;;;;;4907571;29;20039;-86
2021/11/14 11:05:46;;;;;;;90.27;51.00;;;9.70;99.60;;;;;;4906505;29;20040;-83
2021/11/14 11:08:18;;;;;;;87.43;49.80;;;9.80;99.60;;;;;;4890733;29;20051;-84
2021/11/14 11:10:46;;;;;;;91.00;52.15;;;9.80;99.20;;;;;;4906078;29;20112;-85
2021/11/14 11:13:28;;;;;;;96.90;54.10;;;9.90;99.20;;;;;;4905354;29;20044;-85
2021/11/14 11:15:54;;;;;;;96.25;54.63;;;10.00;98.90;;;;;;4904755;29;20521;-84
2021/11/14 11:18:22;;;;;;;96.63;54.90;;;10.10;99.10;;;;;;4902869;29;20033;-83
2021/11/14 11:20:53;;;;;;;85.00;49.80;;;10.40;99.10;;;;;;4890615;29;20056;-86
2021/11/14 11:23:22;;;;;;;81.77;48.60;;;10.70;98.40;;;;;;4917384;29;20037;-84
2021/11/14 11:25:53;;;;;;;71.10;45.43;;;11.00;97.50;;;;;;4910638;29;20068;-85
2021/11/14 11:28:24;;;;;;;73.70;46.37;;;11.10;96.90;;;;;;4900684;29;20486;-85
2021/11/14 11:30:53;;;;;;;68.23;43.47;;;11.00;96.20;;;;;;4899656;29;20037;-83
2021/11/14 11:33:21;;;;;;;68.43;43.37;;;10.90;96.50;;;;;;4899173;29;20437;-84
2021/11/14 11:35:48;;;;;;;67.07;42.27;;;10.80;96.10;;;;;;4884122;29;20185;-84
2021/11/14 11:38:14;;;;;;;60.87;39.33;;;10.70;96.40;;;;;;4899609;29;20032;-85
2021/11/14 11:40:41;;;;;;;54.97;36.73;;;10.60;96.50;;;;;;4899374;29;20041;-85
2021/11/14 11:43:07;;;;;;;52.37;35.93;;;10.60;96.30;;;;;;4899637;29;20520;-87
2021/11/14 11:45:36;;;;;;;55.10;34.97;;;10.50;96.00;;;;;;4884121;29;20065;-82
2021/11/14 11:48:11;;;;;;;48.83;33.03;;;10.50;96.60;;;;;;4899042;29;20044;-85
2021/11/14 11:50:37;;;;;;;48.13;33.90;;;10.60;96.00;;;;;;4899241;29;20032;-84
2021/11/14 11:53:02;;;;;;;44.83;31.47;;;10.60;95.90;;;;;;4899510;29;20068;-85
2021/11/14 11:55:39;;;;;;;43.80;31.17;;;10.70;95.90;;;;;;4884179;29;20549;-84
2021/11/14 11:58:16;;;;;;;45.83;30.70;;;10.70;95.50;;;;;;4899392;29;20401;-84
2021/11/14 12:01:00;;;;;;;45.60;30.33;;;10.80;95.00;;;;;;4900272;29;20029;-84
2021/11/14 12:03:34;;;;;;;;;;;10.70;94.80;;;;;;4899299;29;20045;-84
2021/11/14 12:06:02;;;;;;;74.27;47.43;;;10.60;95.60;;;;;;4899188;29;19908;-84
2021/11/14 12:08:44;;;;;;;77.47;47.77;;;10.60;95.90;;;;;;4898547;29;20139;-84
2021/11/14 12:11:22;;;;;;;74.80;47.87;;;10.50;96.40;;;;;;4900904;29;20092;-84
2021/11/14 12:13:48;;;;;;;76.73;49.23;;;10.60;96.60;;;;;;4884528;29;20053;-84
2021/11/14 12:16:25;;;;;;;74.63;48.50;;;10.50;96.10;;;;;;4898549;29;20496;-84
2021/11/14 12:18:50;;;;;;;75.20;47.17;;;10.50;96.20;;;;;;4899964;29;20412;-84
2021/11/14 12:21:20;;;;;;;71.90;45.03;;;10.50;96.40;;;;;;4898893;29;20056;-84
2021/11/14 12:24:00;;;;;;;71.13;44.77;;;10.50;96.10;;;;;;4899950;29;20092;-84
2021/11/14 12:26:30;;;;;;;63.70;42.00;;;10.50;96.10;;;;;;4900556;29;20055;-84
2021/11/14 12:28:59;;;;;;;66.93;40.33;;;10.40;96.10;;;;;;4898415;29;20028;-83